Loveland, CO

7:39 AM MST on December 05, 2016 (GMT -0700)
SW Loveland | | Change Station

Elev 5056 ft 40.38 °N, 105.09 °W | Updated 10 seconds ago

Clear
Clear
44.5 °F
Feels Like 42 °F
N
5.1
Wind Variable Wind from West
Gusts 11.4 mph

Today
High -- | Low -- °F
--% Chance of Precip.
Yesterday
High -- | Low -- °F
Precip. -- in
Pressure 29.60 in
Visibility 10.0 miles
Clouds Clear
Windchill 42 °F
Dew Point 24 °F
Humidity 44%
Rainfall --
Snow Depth Not available.
7:08 AM 4:33 PM
Waxing Crescent, 32% visible
METAR KFNL 051435Z AUTO 25011KT 10SM CLR 06/M04 A2960 RMK AO1
Pressure 29.60 in
Visibility 10.0 miles
Clouds Clear
Windchill 42 °F
Dew Point 24 °F
Humidity 44%
Rainfall --
Snow Depth Not available.
7:08 AM 4:33 PM
Waxing Crescent, 32% visible
METAR KFNL 051435Z AUTO 25011KT 10SM CLR 06/M04 A2960 RMK AO1

10-Day Weather Forecast

Almanac

Astronomy

Dec. 05, 2016 Rise Set
Actual Time
Civil Twilight
Nautical Twilight
Astronomical Twilight
Moon
Length of Visible Light
Length of Day
Tomorrow will be .
, % of the Moon is Illuminated

Today's Extremes

State Highs State Lows

Community

WunderPhotos

Upload Photos

1,955,782 photos uploaded!

WunderBlog® & News

Nearby

Air Quality

  Air Quality AQ Index Pollutant
Not available.

Snow Depth

Station Depth Elevation

Earthquake Activity

City Distance Mag. Time & Date
Minimum magnitude displayed is 2.5.

Coastal Water Temperatures

Place Temperature

Stations

Nearby Weather Stations

Station Location Temp. Windchill Dew Point Humidity Wind Precip. Elev Updated Type
                   

Watches & Warnings

There are currently no watches in effect.